Time;durP1;ratioP1;P1;durP2;ratioP2;P2;SDS_P1;SDS_P2;PMS_P1;PMS_P2;Temp;Humidity;BMP_temperature;BMP_pressure;BME280_temperature;BME280_humidity;BME280_pressure;Samples;Min_cycle;Max_cycle;Signal;HPM_P1;HPM_P2
2022/07/17 00:00:43;;;;;;;833.33;776.03;;;16.30;9.10;;;;;;4992752;28;20454;-70
2022/07/17 00:03:17;;;;;;;893.30;828.90;;;16.30;9.10;;;;;;4993216;28;20449;-70
2022/07/17 00:05:44;;;;;;;771.50;721.67;;;16.30;9.40;;;;;;4994201;28;20417;-69
2022/07/17 00:08:10;;;;;;;798.47;746.87;;;16.40;9.30;;;;;;4994128;28;20412;-71
2022/07/17 00:10:38;;;;;;;947.17;872.80;;;16.30;9.20;;;;;;4993805;28;20851;-70
2022/07/17 00:13:04;;;;;;;575.23;541.70;;;16.30;9.20;;;;;;4992355;28;20433;-70
2022/07/17 00:15:30;;;;;;;785.20;732.07;;;16.30;9.30;;;;;;4993860;28;20434;-71
2022/07/17 00:17:55;;;;;;;691.80;648.30;;;16.40;9.20;;;;;;4993862;28;20277;-71
2022/07/17 00:20:24;;;;;;;917.97;847.80;;;16.40;9.10;;;;;;4993517;28;20446;-71
2022/07/17 00:22:54;;;;;;;733.83;683.90;;;16.30;9.10;;;;;;4993720;28;20189;-70
2022/07/17 00:25:20;;;;;;;864.00;796.93;;;16.20;9.40;;;;;;4994275;28;20442;-70
2022/07/17 00:27:45;;;;;;;649.00;608.30;;;16.30;9.50;;;;;;4993796;28;20421;-70
2022/07/17 00:30:12;;;;;;;790.40;735.23;;;16.30;9.50;;;;;;4993585;28;20445;-70
2022/07/17 00:32:38;;;;;;;671.80;630.23;;;16.20;9.50;;;;;;4993982;28;20545;-72
2022/07/17 00:35:04;;;;;;;820.37;763.17;;;16.20;9.50;;;;;;4993882;28;20425;-72
2022/07/17 00:37:29;;;;;;;820.23;763.50;;;16.10;9.40;;;;;;4993129;28;20270;-71
2022/07/17 00:39:55;;;;;;;763.83;714.87;;;16.10;9.50;;;;;;4992745;28;20461;-70
2022/07/17 00:42:21;;;;;;;473.53;445.90;;;16.10;9.60;;;;;;4992798;28;20207;-70
2022/07/17 00:44:46;;;;;;;566.00;534.77;;;16.10;9.70;;;;;;4994178;28;20178;-71
2022/07/17 00:47:18;;;;;;;769.20;719.70;;;16.10;9.90;;;;;;4993560;28;20186;-71
2022/07/17 00:49:43;;;;;;;657.70;619.90;;;16.00;10.00;;;;;;4992973;28;20186;-71
2022/07/17 00:52:10;;;;;;;720.53;675.13;;;16.00;10.10;;;;;;4992603;28;20420;-71
2022/07/17 00:54:39;;;;;;;731.93;685.77;;;16.00;10.30;;;;;;4991334;28;20178;-70
2022/07/17 00:57:07;;;;;;;915.40;851.50;;;15.90;10.50;;;;;;4992908;28;21041;-69
2022/07/17 00:59:34;;;;;;;731.67;684.63;;;15.90;10.50;;;;;;4992283;28;20431;-70
2022/07/17 01:02:02;;;;;;;702.00;657.90;;;15.90;10.60;;;;;;4994093;28;20451;-70
2022/07/17 01:04:28;;;;;;;815.60;761.27;;;15.90;10.60;;;;;;4996433;28;20443;-70
2022/07/17 01:06:53;;;;;;;749.30;698.87;;;15.80;10.60;;;;;;4996417;28;20498;-68
2022/07/17 01:09:19;;;;;;;724.00;678.70;;;15.70;10.80;;;;;;4996143;28;20181;-70
2022/07/17 01:11:45;;;;;;;624.10;588.23;;;15.60;10.70;;;;;;4995831;28;20941;-70
2022/07/17 01:14:10;;;;;;;629.37;593.57;;;15.50;10.90;;;;;;4996377;28;20263;-70
2022/07/17 01:16:36;;;;;;;829.67;772.40;;;15.50;11.10;;;;;;4996348;28;20292;-71
2022/07/17 01:19:02;;;;;;;482.23;459.70;;;15.40;11.60;;;;;;4995806;28;20479;-70
2022/07/17 01:21:40;;;;;;;632.13;594.37;;;15.30;11.50;;;;;;4996083;28;20204;-70
2022/07/17 01:24:06;;;;;;;598.07;560.77;;;15.20;12.20;;;;;;4996197;28;20204;-70
2022/07/17 01:26:32;;;;;;;845.73;788.87;;;15.10;12.30;;;;;;4996232;28;20939;-71
2022/07/17 01:28:57;;;;;;;691.53;647.57;;;15.00;12.40;;;;;;4995872;28;20280;-71
2022/07/17 01:31:23;;;;;;;790.53;736.73;;;15.00;12.50;;;;;;4995764;28;20208;-71
2022/07/17 01:33:49;;;;;;;733.07;683.07;;;15.00;12.40;;;;;;4996144;28;20188;-71
2022/07/17 01:36:15;;;;;;;854.07;795.87;;;15.00;12.40;;;;;;4996090;28;20184;-69
2022/07/17 01:38:40;;;;;;;694.10;654.43;;;15.10;12.20;;;;;;4994964;28;20428;-70
2022/07/17 01:41:06;;;;;;;861.83;800.67;;;15.10;12.20;;;;;;4995841;28;20271;-69
2022/07/17 01:43:31;;;;;;;549.60;521.77;;;15.10;12.50;;;;;;4995748;28;20215;-71
2022/07/17 01:45:57;;;;;;;857.93;798.73;;;15.10;12.30;;;;;;4995848;28;20708;-69
2022/07/17 01:48:25;;;;;;;891.47;825.70;;;15.10;12.30;;;;;;4994768;28;20598;-70
2022/07/17 01:50:50;;;;;;;801.40;749.33;;;15.10;12.10;;;;;;4995729;28;20200;-69
2022/07/17 01:53:16;;;;;;;543.20;517.20;;;15.10;12.30;;;;;;4995719;28;20811;-71
2022/07/17 01:55:41;;;;;;;835.60;776.73;;;15.00;12.50;;;;;;4994033;28;20556;-70
2022/07/17 01:58:07;;;;;;;743.33;694.50;;;15.00;12.90;;;;;;4994206;28;20196;-70
2022/07/17 02:00:32;;;;;;;986.50;913.67;;;14.90;13.00;;;;;;4995209;28;20636;-70
2022/07/17 02:02:58;;;;;;;802.53;750.20;;;14.90;13.10;;;;;;4995373;28;20706;-71
2022/07/17 02:05:23;;;;;;;557.83;528.80;;;14.90;13.00;;;;;;4996535;28;20185;-69
2022/07/17 02:07:49;;;;;;;849.60;791.90;;;14.80;13.00;;;;;;4997582;28;20195;-70
2022/07/17 02:10:14;;;;;;;814.27;765.17;;;14.80;13.00;;;;;;4996073;28;20247;-71
2022/07/17 02:12:40;;;;;;;841.00;782.43;;;14.80;13.00;;;;;;4996374;28;20211;-70
2022/07/17 02:15:07;;;;;;;880.37;818.87;;;14.70;12.90;;;;;;4996484;28;20208;-71
2022/07/17 02:17:32;;;;;;;675.73;630.37;;;14.70;12.90;;;;;;4996398;28;20509;-71
2022/07/17 02:19:58;;;;;;;924.73;859.80;;;14.60;12.90;;;;;;4995272;28;20468;-71
2022/07/17 02:22:23;;;;;;;880.93;819.20;;;14.70;13.60;;;;;;4995745;28;20216;-71
2022/07/17 02:24:49;;;;;;;674.40;635.40;;;14.70;13.40;;;;;;4995948;28;20177;-71
2022/07/17 02:27:14;;;;;;;761.63;713.30;;;14.70;13.40;;;;;;4995302;28;20184;-70
2022/07/17 02:29:40;;;;;;;664.67;628.90;;;14.70;13.60;;;;;;4994902;28;20181;-70
2022/07/17 02:32:06;;;;;;;666.60;628.33;;;14.60;13.50;;;;;;4995217;28;20208;-72
2022/07/17 02:34:31;;;;;;;936.50;869.87;;;14.60;13.40;;;;;;4995433;28;20183;-71
2022/07/17 02:36:57;;;;;;;841.47;785.70;;;14.60;13.40;;;;;;4994885;28;20267;-71
2022/07/17 02:39:22;;;;;;;896.73;834.97;;;14.50;13.40;;;;;;4995526;28;20586;-70
2022/07/17 02:41:48;;;;;;;425.57;406.50;;;14.50;13.40;;;;;;4994987;28;20223;-70
2022/07/17 02:44:14;;;;;;;701.53;659.37;;;14.50;13.40;;;;;;4994815;28;20208;-70
2022/07/17 02:46:39;;;;;;;793.60;741.83;;;14.40;13.60;;;;;;4994346;28;20175;-70
2022/07/17 02:49:05;;;;;;;845.60;788.17;;;14.50;14.00;;;;;;4994257;28;20219;-70
2022/07/17 02:51:30;;;;;;;1015.33;941.63;;;14.40;13.90;;;;;;4994372;28;20603;-70
2022/07/17 02:53:56;;;;;;;687.93;648.17;;;14.50;13.90;;;;;;4994649;28;20230;-70
2022/07/17 02:56:21;;;;;;;799.03;748.17;;;14.30;13.90;;;;;;4994771;28;20670;-70
2022/07/17 02:58:47;;;;;;;722.83;680.50;;;14.30;14.00;;;;;;4994059;28;20539;-71
2022/07/17 03:01:12;;;;;;;573.03;542.00;;;14.30;13.80;;;;;;4993758;28;20307;-71
2022/07/17 03:03:38;;;;;;;905.67;839.37;;;14.30;14.10;;;;;;4994433;28;20242;-69
2022/07/17 03:06:03;;;;;;;818.27;766.43;;;14.40;14.20;;;;;;4994133;28;20173;-70
2022/07/17 03:08:29;;;;;;;998.67;924.60;;;14.40;14.20;;;;;;4994025;28;20262;-69
2022/07/17 03:10:55;;;;;;;917.13;854.33;;;14.30;14.40;;;;;;4993735;28;20211;-69
2022/07/17 03:13:20;;;;;;;567.87;537.80;;;14.40;14.10;;;;;;4994483;28;20189;-70
2022/07/17 03:15:46;;;;;;;855.57;796.47;;;14.30;14.00;;;;;;4994011;28;20180;-71
2022/07/17 03:18:11;;;;;;;687.17;643.93;;;14.30;14.30;;;;;;4994138;28;20640;-71
2022/07/17 03:20:37;;;;;;;754.63;711.47;;;14.30;14.60;;;;;;4994516;28;20204;-71
2022/07/17 03:23:02;;;;;;;802.23;748.73;;;14.30;14.80;;;;;;4993887;28;20208;-69
2022/07/17 03:25:28;;;;;;;763.17;711.77;;;14.20;15.00;;;;;;4992695;28;20247;-70
2022/07/17 03:27:53;;;;;;;707.60;666.13;;;14.30;15.00;;;;;;4992426;28;20191;-69
2022/07/17 03:30:19;;;;;;;733.93;687.23;;;14.30;15.00;;;;;;4993325;28;20208;-70
2022/07/17 03:32:45;;;;;;;676.53;639.23;;;14.30;14.80;;;;;;4993674;28;20521;-69
2022/07/17 03:35:10;;;;;;;715.97;671.97;;;14.40;14.40;;;;;;4993497;28;20188;-70
2022/07/17 03:37:37;;;;;;;631.93;598.60;;;14.40;14.10;;;;;;4994077;28;20647;-70
2022/07/17 03:40:07;;;;;;;861.00;801.20;;;14.40;14.00;;;;;;4994073;28;20211;-69
2022/07/17 03:42:33;;;;;;;819.93;763.43;;;14.30;14.30;;;;;;4993147;28;20462;-69
2022/07/17 03:44:58;;;;;;;704.90;662.67;;;14.40;14.30;;;;;;4993341;28;20495;-69
2022/07/17 03:47:24;;;;;;;779.73;728.87;;;14.40;14.20;;;;;;4992504;28;20650;-69
2022/07/17 03:49:49;;;;;;;705.63;663.23;;;14.40;14.50;;;;;;4993203;28;20277;-70
2022/07/17 03:52:15;;;;;;;764.90;717.33;;;14.40;14.40;;;;;;4993671;28;20199;-70
2022/07/17 03:54:40;;;;;;;731.90;687.43;;;14.40;14.20;;;;;;4993789;28;20187;-70
2022/07/17 03:57:06;;;;;;;818.37;764.10;;;14.40;14.10;;;;;;4993204;28;20187;-70
2022/07/17 03:59:32;;;;;;;892.37;828.87;;;14.40;14.10;;;;;;4993053;28;20179;-69
2022/07/17 04:01:57;;;;;;;691.80;648.70;;;14.40;14.20;;;;;;4993054;28;20286;-70
2022/07/17 04:04:23;;;;;;;786.97;733.77;;;14.40;14.10;;;;;;4993617;28;20204;-71
2022/07/17 04:06:48;;;;;;;621.27;586.83;;;14.50;13.80;;;;;;4993201;28;20216;-70
2022/07/17 04:09:14;;;;;;;731.47;683.93;;;14.60;13.60;;;;;;4993163;28;20180;-70
2022/07/17 04:11:39;;;;;;;823.30;765.43;;;14.70;13.60;;;;;;4991680;28;20203;-70
2022/07/17 04:14:05;;;;;;;874.77;812.33;;;14.70;13.40;;;;;;4993793;28;20181;-70
2022/07/17 04:16:30;;;;;;;715.50;671.43;;;14.60;13.30;;;;;;4993872;28;20185;-70
2022/07/17 04:18:56;;;;;;;738.97;689.33;;;14.60;13.40;;;;;;4993106;28;20188;-70
2022/07/17 04:21:22;;;;;;;967.37;893.67;;;14.60;13.70;;;;;;4993743;28;20207;-70
2022/07/17 04:23:47;;;;;;;641.00;604.97;;;14.70;13.70;;;;;;4993204;28;20228;-72
2022/07/17 04:26:13;;;;;;;579.80;547.80;;;14.60;13.60;;;;;;4992908;28;20188;-70
2022/07/17 04:28:39;;;;;;;728.60;681.83;;;14.50;13.90;;;;;;4993233;28;20263;-71
2022/07/17 04:31:05;;;;;;;669.67;631.63;;;14.50;14.10;;;;;;4993277;28;20199;-70
2022/07/17 04:33:30;;;;;;;699.00;654.13;;;14.50;14.00;;;;;;4993638;28;20905;-71
2022/07/17 04:35:56;;;;;;;786.33;732.23;;;14.50;14.10;;;;;;4992608;28;20184;-70
2022/07/17 04:38:22;;;;;;;788.27;735.27;;;14.60;14.10;;;;;;4992912;28;20173;-70
2022/07/17 04:40:47;;;;;;;583.03;550.33;;;14.70;13.90;;;;;;4992605;28;20220;-70
2022/07/17 04:43:13;;;;;;;861.00;804.77;;;14.70;13.60;;;;;;4992613;28;20207;-70
2022/07/17 04:45:38;;;;;;;648.73;612.00;;;14.80;13.50;;;;;;4993439;28;20172;-72
2022/07/17 04:48:05;;;;;;;660.80;622.80;;;14.70;13.40;;;;;;4991810;28;20673;-71
2022/07/17 04:50:31;;;;;;;849.83;788.93;;;14.70;13.70;;;;;;4992506;28;20241;-71
2022/07/17 04:52:57;;;;;;;966.73;896.23;;;14.70;13.70;;;;;;4992860;28;20932;-71
2022/07/17 04:55:23;;;;;;;892.80;830.30;;;14.80;13.20;;;;;;4992711;28;20188;-71
2022/07/17 04:57:48;;;;;;;711.90;667.63;;;14.80;13.10;;;;;;4993008;28;20424;-70
2022/07/17 05:00:15;;;;;;;997.37;922.23;;;14.80;13.30;;;;;;4992037;28;20486;-72
2022/07/17 05:02:40;;;;;;;675.93;637.17;;;14.90;13.00;;;;;;4991418;28;20208;-71
2022/07/17 05:05:07;;;;;;;684.73;647.83;;;15.80;13.60;;;;;;4993039;28;20421;-72
2022/07/17 05:07:32;;;;;;;849.33;791.30;;;16.80;11.30;;;;;;4993304;28;20399;-71
2022/07/17 05:09:58;;;;;;;704.17;661.60;;;18.40;9.40;;;;;;4992180;28;20489;-72
2022/07/17 05:12:23;;;;;;;612.47;574.93;;;19.40;7.80;;;;;;4992576;28;20184;-72
2022/07/17 05:14:49;;;;;;;476.13;452.40;;;20.90;4.60;;;;;;4994596;28;20183;-71
2022/07/17 05:17:14;;;;;;;437.17;414.80;;;21.40;2.00;;;;;;4992207;28;20195;-71
2022/07/17 05:19:40;;;;;;;509.30;479.20;;;21.50;1.70;;;;;;4992816;28;20172;-70
2022/07/17 05:22:06;;;;;;;708.40;654.57;;;22.30;1.00;;;;;;4992433;28;20569;-71
2022/07/17 05:24:33;;;;;;;625.17;582.83;;;22.10;1.50;;;;;;4992339;28;20208;-70
2022/07/17 05:26:59;;;;;;;732.60;677.47;;;;;;;;;;4991990;28;20682;-71
2022/07/17 05:29:25;;;;;;;750.53;695.47;;;24.70;1.00;;;;;;4992375;28;20466;-71
2022/07/17 05:31:50;;;;;;;650.67;607.50;;;25.60;1.00;;;;;;4992013;28;20460;-69
2022/07/17 05:34:16;;;;;;;706.03;657.73;;;23.80;1.00;;;;;;4993045;28;20169;-68
2022/07/17 05:36:41;;;;;;;782.07;719.70;;;24.90;1.00;;;;;;4991118;28;20172;-72
2022/07/17 05:39:08;;;;;;;770.17;714.87;;;;;;;;;;4992013;28;20176;-71
2022/07/17 05:41:34;;;;;;;792.33;733.37;;;27.80;1.00;;;;;;4992117;28;20215;-70
2022/07/17 05:43:59;;;;;;;936.63;853.67;;;28.20;1.00;;;;;;4992506;28;20463;-71
2022/07/17 05:46:25;;;;;;;811.43;750.57;;;28.90;1.00;;;;;;4990678;28;20180;-72
2022/07/17 05:48:50;;;;;;;859.83;790.27;;;27.70;1.00;;;;;;4993448;28;20184;-71
2022/07/17 05:51:16;;;;;;;929.17;844.07;;;28.70;1.00;;;;;;4995711;28;20231;-71
2022/07/17 05:53:41;;;;;;;952.00;864.07;;;29.70;1.00;;;;;;4996082;28;20181;-71
2022/07/17 05:56:07;;;;;;;1032.57;932.60;;;30.50;1.00;;;;;;4995412;28;20286;-70
2022/07/17 05:58:33;;;;;;;880.00;810.07;;;31.10;1.00;;;;;;4994898;28;20227;-71
2022/07/17 06:00:58;;;;;;;952.20;868.20;;;31.40;1.00;;;;;;4995261;28;20665;-71
2022/07/17 06:03:24;;;;;;;979.27;882.97;;;31.60;1.00;;;;;;4994775;28;20352;-69
2022/07/17 06:05:49;;;;;;;928.37;840.30;;;32.20;1.00;;;;;;4995052;28;20184;-70
2022/07/17 06:08:15;;;;;;;908.90;830.13;;;31.60;1.00;;;;;;4994838;28;20169;-71
2022/07/17 06:10:40;;;;;;;977.50;887.00;;;31.20;1.00;;;;;;4995025;28;20200;-71
2022/07/17 06:13:06;;;;;;;916.23;840.20;;;31.90;1.00;;;;;;4994711;28;20239;-71
2022/07/17 06:15:32;;;;;;;1014.40;913.33;;;32.50;1.00;;;;;;4994998;28;20822;-71
2022/07/17 06:18:04;;;;;;;1071.00;957.60;;;;;;;;;;4994458;28;20224;-72
2022/07/17 06:20:30;;;;;;;798.97;738.23;;;33.50;1.00;;;;;;4994977;28;20798;-72
2022/07/17 06:22:56;;;;;;;848.07;781.27;;;33.70;1.00;;;;;;4995012;28;20471;-71
2022/07/17 06:25:22;;;;;;;959.37;869.97;;;33.70;1.00;;;;;;4996119;28;20443;-72
2022/07/17 06:27:48;;;;;;;1037.47;925.93;;;33.80;1.00;;;;;;4995532;28;20408;-71
2022/07/17 06:30:14;;;;;;;950.33;860.17;;;33.80;1.00;;;;;;4994734;28;20967;-72
2022/07/17 06:32:40;;;;;;;1000.00;903.43;;;33.80;1.00;;;;;;4994993;28;20177;-72
2022/07/17 06:35:07;;;;;;;840.37;775.50;;;33.90;1.00;;;;;;4994840;28;20424;-72
2022/07/17 06:37:33;;;;;;;944.20;859.70;;;33.80;1.00;;;;;;4994481;28;20435;-72
2022/07/17 06:39:59;;;;;;;897.33;818.00;;;33.80;1.00;;;;;;4993561;28;20727;-71
2022/07/17 06:42:24;;;;;;;1049.23;939.00;;;34.00;1.00;;;;;;4994525;28;20473;-72
2022/07/17 06:44:50;;;;;;;951.73;865.67;;;34.10;1.00;;;;;;4994670;28;20658;-72
2022/07/17 06:47:15;;;;;;;997.90;892.80;;;33.80;1.00;;;;;;4995899;28;20173;-72
2022/07/17 06:49:41;;;;;;;946.10;860.50;;;32.30;1.00;;;;;;4994053;28;20181;-71
2022/07/17 06:52:07;;;;;;;959.63;869.40;;;31.40;1.00;;;;;;4995104;28;20380;-72
2022/07/17 06:54:34;;;;;;;1198.10;999.90;;;30.70;1.00;;;;;;4994274;28;20183;-71
2022/07/17 06:57:00;;;;;;;856.60;788.73;;;30.00;1.00;;;;;;4994660;28;20177;-70
2022/07/17 06:59:26;;;;;;;894.87;824.93;;;27.00;1.00;;;;;;4992629;28;20426;-71
2022/07/17 07:01:51;;;;;;;934.23;850.60;;;26.40;1.00;;;;;;4994327;28;20971;-71
2022/07/17 07:04:17;;;;;;;906.23;827.20;;;26.60;1.00;;;;;;4993743;28;20577;-72
2022/07/17 07:06:43;;;;;;;944.63;868.60;;;26.70;1.00;;;;;;4994499;28;20610;-71
2022/07/17 07:09:09;;;;;;;1142.47;999.90;;;27.10;1.00;;;;;;4993641;28;20588;-71
2022/07/17 07:11:34;;;;;;;854.80;779.33;;;26.80;1.00;;;;;;4994488;28;20193;-71
2022/07/17 07:14:00;;;;;;;886.13;808.53;;;25.90;1.00;;;;;;4992582;28;20438;-71
2022/07/17 07:16:26;;;;;;;988.57;897.70;;;25.40;1.00;;;;;;4993792;28;20528;-71
2022/07/17 07:18:51;;;;;;;807.60;747.43;;;25.90;1.00;;;;;;4993616;28;20594;-71
2022/07/17 07:21:17;;;;;;;877.53;801.93;;;26.10;1.00;;;;;;4994088;28;20239;-71
2022/07/17 07:23:42;;;;;;;905.90;825.40;;;25.70;1.00;;;;;;4993532;28;20200;-71
2022/07/17 07:26:08;;;;;;;859.43;790.40;;;25.90;1.00;;;;;;4994521;28;20681;-72
2022/07/17 07:28:34;;;;;;;1153.97;982.63;;;;;;;;;;4994033;28;20267;-72
2022/07/17 07:31:03;;;;;;;1037.87;927.40;;;28.50;1.00;;;;;;4993261;28;20662;-70
2022/07/17 07:33:29;;;;;;;987.17;894.00;;;29.60;1.00;;;;;;4994278;28;20420;-71
2022/07/17 07:35:54;;;;;;;1006.57;911.37;;;29.30;1.00;;;;;;4993531;28;20963;-70
2022/07/17 07:38:23;;;;;;;1055.93;951.03;;;29.10;1.00;;;;;;4993048;28;20547;-70
2022/07/17 07:40:49;;;;;;;979.23;879.33;;;29.40;1.00;;;;;;4994726;28;20227;-71
2022/07/17 07:43:14;;;;;;;1089.80;970.20;;;29.70;1.00;;;;;;4993256;28;20463;-71
2022/07/17 07:45:40;;;;;;;908.33;831.90;;;30.40;1.00;;;;;;4993356;28;20576;-68
2022/07/17 07:48:05;;;;;;;960.03;869.77;;;30.70;1.00;;;;;;4993132;28;20637;-72
2022/07/17 07:50:31;;;;;;;938.43;853.43;;;;;;;;;;4993145;28;20220;-71
2022/07/17 07:52:57;;;;;;;861.93;790.83;;;29.70;1.00;;;;;;4993422;28;20188;-73
2022/07/17 07:55:22;;;;;;;846.43;781.83;;;29.00;1.00;;;;;;4993636;28;20423;-72
2022/07/17 07:57:49;;;;;;;877.97;806.67;;;29.20;1.00;;;;;;4993218;28;20613;-72
2022/07/17 08:00:16;;;;;;;1072.20;944.73;;;28.90;1.00;;;;;;4993367;28;20495;-71
2022/07/17 08:02:41;;;;;;;993.50;896.90;;;28.70;1.00;;;;;;4993007;28;20502;-72
2022/07/17 08:05:07;;;;;;;929.57;848.43;;;28.10;1.00;;;;;;4993219;28;20416;-72
2022/07/17 08:07:35;;;;;;;917.10;836.27;;;28.30;1.00;;;;;;4992845;28;20187;-68
2022/07/17 08:10:00;;;;;;;1004.67;911.50;;;28.90;1.00;;;;;;4992365;28;20420;-68
2022/07/17 08:12:26;;;;;;;904.57;820.30;;;28.60;1.00;;;;;;4993118;28;20486;-68
2022/07/17 08:14:51;;;;;;;1039.47;926.37;;;28.70;1.00;;;;;;4992735;28;20181;-69
2022/07/17 08:17:19;;;;;;;923.43;841.83;;;28.70;1.00;;;;;;4992770;28;20172;-68
2022/07/17 08:19:45;;;;;;;1027.13;918.23;;;28.00;1.00;;;;;;4992410;28;20192;-68
2022/07/17 08:22:10;;;;;;;860.50;788.10;;;27.40;1.00;;;;;;4992631;28;20811;-69
2022/07/17 08:24:36;;;;;;;1007.90;909.63;;;27.80;1.00;;;;;;4992683;28;20254;-69
2022/07/17 08:27:01;;;;;;;964.67;872.27;;;27.80;1.00;;;;;;4992953;28;20181;-69
2022/07/17 08:29:27;;;;;;;879.90;813.50;;;28.20;1.00;;;;;;4992294;28;20236;-69
2022/07/17 08:31:53;;;;;;;925.87;835.00;;;28.60;1.00;;;;;;4995101;28;20251;-69
2022/07/17 08:34:19;;;;;;;1069.00;958.77;;;27.70;1.00;;;;;;4990815;28;20180;-69
2022/07/17 08:36:44;;;;;;;1118.07;942.03;;;27.80;1.00;;;;;;4992478;28;20511;-68
2022/07/17 08:39:10;;;;;;;857.33;787.83;;;27.40;1.00;;;;;;4993537;28;20624;-68
2022/07/17 08:41:39;;;;;;;1047.93;946.27;;;26.80;1.00;;;;;;4976289;28;20263;-67
2022/07/17 08:44:08;;;;;;;985.63;892.53;;;26.80;1.00;;;;;;4993096;28;20262;-68
2022/07/17 08:46:38;;;;;;;976.67;880.97;;;26.80;1.00;;;;;;4992461;28;20412;-68
2022/07/17 08:49:05;;;;;;;959.57;867.03;;;27.40;1.00;;;;;;4990230;28;20632;-68
2022/07/17 08:51:32;;;;;;;915.23;824.00;;;27.20;1.00;;;;;;4987618;28;20463;-70
2022/07/17 08:53:58;;;;;;;855.67;782.83;;;26.70;1.00;;;;;;4987933;28;20443;-69
2022/07/17 08:56:25;;;;;;;990.40;900.47;;;25.80;1.00;;;;;;4989212;28;20424;-69
2022/07/17 08:58:50;;;;;;;745.77;695.33;;;25.20;1.00;;;;;;4987745;28;20431;-69
2022/07/17 09:01:18;;;;;;;1006.93;908.53;;;25.50;1.00;;;;;;4987872;28;20452;-68
2022/07/17 09:03:59;;;;;;;944.77;855.87;;;25.60;1.00;;;;;;4988838;28;20599;-67
2022/07/17 09:06:26;;;;;;;927.23;843.70;;;25.40;1.00;;;;;;4988462;28;20423;-69
2022/07/17 09:09:09;;;;;;;937.07;854.50;;;25.10;1.00;;;;;;4988373;28;21166;-69
2022/07/17 09:11:54;;;;;;;721.20;672.13;;;24.70;1.00;;;;;;4987487;28;20438;-68
2022/07/17 09:14:20;;;;;;;728.87;677.67;;;24.30;1.00;;;;;;4987556;28;20434;-70
2022/07/17 09:16:51;;;;;;;906.17;825.63;;;24.00;1.00;;;;;;4988211;28;21300;-68
2022/07/17 09:19:31;;;;;;;922.40;840.23;;;23.80;1.00;;;;;;4986781;28;20430;-68
2022/07/17 09:22:18;;;;;;;769.17;714.60;;;23.90;1.00;;;;;;4988067;28;20440;-68
2022/07/17 09:24:52;;;;;;;869.40;795.73;;;23.90;1.00;;;;;;4991404;28;20968;-67
2022/07/17 09:27:23;;;;;;;992.23;897.73;;;24.00;1.00;;;;;;4989455;28;20429;-68
2022/07/17 09:30:09;;;;;;;1007.70;915.43;;;23.80;1.00;;;;;;4972844;28;20675;-67
2022/07/17 09:32:37;;;;;;;838.83;776.10;;;23.80;1.00;;;;;;4986166;28;20447;-69
2022/07/17 09:35:05;;;;;;;763.93;711.07;;;23.80;1.00;;;;;;4990880;28;20789;-69
2022/07/17 09:37:33;;;;;;;861.33;786.83;;;23.80;1.00;;;;;;4990819;28;20424;-68
2022/07/17 09:39:58;;;;;;;998.97;907.90;;;23.90;1.00;;;;;;4990893;28;20424;-69
2022/07/17 09:42:32;;;;;;;730.10;680.23;;;23.90;1.00;;;;;;4991520;28;20442;-69
2022/07/17 09:45:07;;;;;;;809.23;751.57;;;23.60;1.00;;;;;;4992392;28;20556;-68
2022/07/17 09:47:34;;;;;;;945.87;862.77;;;23.70;1.00;;;;;;4991577;28;20426;-70
2022/07/17 09:50:02;;;;;;;719.20;665.90;;;23.80;1.00;;;;;;4991011;28;20507;-69
2022/07/17 09:52:30;;;;;;;922.93;838.63;;;23.60;1.00;;;;;;4991167;28;20825;-68
2022/07/17 09:54:57;;;;;;;964.07;877.33;;;23.70;1.00;;;;;;4991256;28;20435;-72
2022/07/17 09:57:31;;;;;;;832.67;768.10;;;23.60;1.00;;;;;;4991255;28;20419;-70
2022/07/17 10:00:16;;;;;;;862.30;783.83;;;23.80;1.00;;;;;;4990986;28;20443;-71
2022/07/17 10:02:43;;;;;;;743.53;690.00;;;23.90;1.00;;;;;;4993553;28;20981;-71
2022/07/17 10:05:16;;;;;;;865.20;794.43;;;23.80;1.00;;;;;;4983696;28;20850;-71
2022/07/17 10:07:45;;;;;;;780.23;718.00;;;23.80;1.00;;;;;;4998410;28;20415;-70
2022/07/17 10:10:11;;;;;;;949.37;866.43;;;24.00;1.00;;;;;;5001756;28;21062;-71
2022/07/17 10:12:39;;;;;;;750.67;697.97;;;24.10;1.00;;;;;;4995104;28;20412;-71
2022/07/17 10:15:06;;;;;;;791.73;731.60;;;23.90;1.00;;;;;;4995671;28;20495;-69
2022/07/17 10:17:41;;;;;;;883.63;805.30;;;24.00;1.00;;;;;;4994824;28;20427;-72
2022/07/17 10:20:07;;;;;;;733.17;681.87;;;24.00;1.00;;;;;;4995717;28;20458;-70
2022/07/17 10:22:46;;;;;;;787.60;724.37;;;24.00;1.00;;;;;;4994475;28;20432;-69
2022/07/17 10:25:15;;;;;;;692.63;644.63;;;24.20;1.00;;;;;;4995291;28;20416;-70
2022/07/17 10:27:53;;;;;;;976.90;874.63;;;24.10;1.00;;;;;;4994334;28;20442;-71
2022/07/17 10:30:26;;;;;;;830.10;764.77;;;24.30;1.00;;;;;;4993987;28;20447;-71
2022/07/17 10:32:54;;;;;;;691.53;647.07;;;24.40;1.00;;;;;;4994268;28;20412;-70
2022/07/17 10:35:20;;;;;;;784.47;722.10;;;24.40;1.00;;;;;;4993976;28;20950;-70
2022/07/17 10:37:45;;;;;;;945.13;857.53;;;24.50;1.00;;;;;;4992966;28;20427;-69
2022/07/17 10:40:28;;;;;;;805.90;745.73;;;24.50;1.00;;;;;;4994379;28;20291;-72
2022/07/17 10:42:58;;;;;;;727.47;678.90;;;24.30;1.00;;;;;;4994468;28;20196;-72
2022/07/17 10:45:28;;;;;;;758.97;708.60;;;24.40;1.00;;;;;;4994498;28;20428;-71
2022/07/17 10:48:00;;;;;;;891.43;816.67;;;24.50;1.00;;;;;;4993744;28;20897;-72
2022/07/17 10:50:29;;;;;;;710.37;663.87;;;24.50;1.00;;;;;;4993451;28;20455;-71
2022/07/17 10:53:23;;;;;;;762.23;705.97;;;24.50;1.00;;;;;;4992651;28;20503;-72
2022/07/17 10:56:05;;;;;;;778.50;718.10;;;24.60;1.00;;;;;;4992954;28;20435;-72
2022/07/17 10:58:34;;;;;;;949.93;863.83;;;24.50;1.00;;;;;;4994366;28;20570;-71
2022/07/17 11:01:19;;;;;;;895.03;815.57;;;24.60;1.00;;;;;;4994048;28;20455;-71
2022/07/17 11:03:52;;;;;;;768.63;711.37;;;24.70;1.00;;;;;;4994470;28;20874;-72
2022/07/17 11:06:21;;;;;;;766.57;705.67;;;24.70;1.00;;;;;;4993936;28;20416;-72
2022/07/17 11:08:53;;;;;;;803.67;742.77;;;24.70;1.00;;;;;;4993673;28;20428;-73
2022/07/17 11:11:21;;;;;;;793.43;731.17;;;24.60;1.00;;;;;;4994024;28;20438;-72
2022/07/17 11:13:47;;;;;;;948.53;853.33;;;24.60;1.00;;;;;;4993942;28;20426;-72
2022/07/17 11:16:27;;;;;;;723.30;668.40;;;24.80;1.00;;;;;;4993617;28;20435;-73
2022/07/17 11:18:53;;;;;;;813.03;749.10;;;24.90;1.00;;;;;;4994168;28;20404;-72
2022/07/17 11:21:19;;;;;;;844.93;783.20;;;24.90;1.00;;;;;;4993579;28;20514;-71
2022/07/17 11:23:55;;;;;;;843.93;778.57;;;25.00;1.00;;;;;;4993697;28;20550;-68
2022/07/17 11:26:23;;;;;;;787.47;735.00;;;25.00;1.00;;;;;;4993368;28;20546;-71
2022/07/17 11:28:50;;;;;;;847.40;775.87;;;25.00;1.00;;;;;;4993299;28;20434;-72
2022/07/17 11:31:22;;;;;;;767.70;709.70;;;24.80;1.00;;;;;;4992551;28;20424;-71
2022/07/17 11:34:11;;;;;;;778.93;727.23;;;24.90;1.00;;;;;;4993531;28;20920;-71
2022/07/17 11:36:39;;;;;;;919.67;830.27;;;25.00;1.00;;;;;;4989879;28;20466;-72
2022/07/17 11:39:10;;;;;;;741.07;690.77;;;25.00;1.00;;;;;;4988276;28;20435;-72
2022/07/17 11:41:42;;;;;;;726.07;675.30;;;24.90;1.00;;;;;;4990151;28;20518;-72
2022/07/17 11:44:11;;;;;;;955.17;867.53;;;24.90;1.00;;;;;;4989478;28;20464;-71
2022/07/17 11:46:39;;;;;;;1027.80;927.23;;;24.90;1.00;;;;;;4988221;28;20438;-69
2022/07/17 11:49:06;;;;;;;732.13;678.23;;;25.00;1.00;;;;;;4988536;28;20432;-73
2022/07/17 11:51:41;;;;;;;876.67;807.97;;;25.20;1.00;;;;;;4989932;28;20447;-72
2022/07/17 11:54:09;;;;;;;968.87;880.50;;;25.20;1.00;;;;;;4989644;28;20502;-71
2022/07/17 11:56:35;;;;;;;738.90;688.37;;;25.30;1.00;;;;;;4987537;28;20518;-71
2022/07/17 11:59:02;;;;;;;759.07;700.37;;;25.40;1.00;;;;;;4987982;28;20999;-71
2022/07/17 12:01:30;;;;;;;868.67;800.37;;;25.40;1.00;;;;;;4988948;28;20498;-70
2022/07/17 12:03:58;;;;;;;824.17;761.33;;;25.40;1.00;;;;;;4988780;28;20483;-71
2022/07/17 12:06:27;;;;;;;998.87;891.33;;;25.40;1.00;;;;;;4988731;28;20420;-72
2022/07/17 12:08:53;;;;;;;805.60;741.87;;;25.50;1.00;;;;;;4988705;28;20428;-71
2022/07/17 12:11:19;;;;;;;895.30;812.07;;;25.60;1.00;;;;;;4988955;28;20800;-72
2022/07/17 12:13:46;;;;;;;944.53;859.13;;;25.60;1.00;;;;;;4988477;28;20463;-71
2022/07/17 12:16:29;;;;;;;964.10;873.60;;;25.70;1.00;;;;;;4984332;28;20440;-71